Terminal Aerodrome Forecast
Issued by NWS

Home | Current Version | Previous Version | Graphics & Text | Print | Product List | Glossary On
Versions: 1 2 3 4 5 6 7 8 9 10 11 12 13 14 15 16 17 18 19 20 21 22 23 24 25 26
719
FTUS43 KGRB 130256 AAA
TAFAUW
TAF AMD
KAUW 130256Z 1303/1324 25003KT 6SM -SN SCT018 OVC060
      TEMPO 1303/1306 1SM -SN BKN018
     FM130600 14005KT 2SM -SN OVC029
     FM131100 11007KT 3SM -SN OVC012
     FM131600 05006KT 2SM -SN OVC009
     FM132100 01008KT 1 1/2SM -SN OVC010=

USA.gov is the U.S. government's official web portal to all federal, state and local government web resources and services.